sensor_id;sensor_type;location;lat;lon;timestamp;pressure;altitude;pressure_sealevel;temperature;humidity
43757;BME280;73222;41.866;12.462;2023-12-07T00:00:29;101175.31;;;4.30;100.00
43757;BME280;73222;41.866;12.462;2023-12-07T00:02:54;101176.16;;;4.30;100.00
43757;BME280;73222;41.866;12.462;2023-12-07T00:05:19;101170.03;;;4.26;100.00
43757;BME280;73222;41.866;12.462;2023-12-07T00:07:45;101175.16;;;4.26;100.00
43757;BME280;73222;41.866;12.462;2023-12-07T00:10:10;101168.31;;;4.25;100.00
43757;BME280;73222;41.866;12.462;2023-12-07T00:12:35;101165.75;;;4.25;100.00
43757;BME280;73222;41.866;12.462;2023-12-07T00:15:01;101168.31;;;4.25;100.00
43757;BME280;73222;41.866;12.462;2023-12-07T00:17:28;101176.44;;;4.15;100.00
43757;BME280;73222;41.866;12.462;2023-12-07T00:19:53;101164.81;;;4.23;100.00
43757;BME280;73222;41.866;12.462;2023-12-07T00:22:19;101166.44;;;4.21;100.00
43757;BME280;73222;41.866;12.462;2023-12-07T00:24:45;101169.94;;;4.23;100.00
43757;BME280;73222;41.866;12.462;2023-12-07T00:27:10;101172.56;;;4.25;100.00
43757;BME280;73222;41.866;12.462;2023-12-07T00:29:39;101169.19;;;4.26;100.00
43757;BME280;73222;41.866;12.462;2023-12-07T00:32:04;101174.22;;;4.23;100.00
43757;BME280;73222;41.866;12.462;2023-12-07T00:34:30;101183.31;;;4.16;100.00
43757;BME280;73222;41.866;12.462;2023-12-07T00:36:55;101195.22;;;4.14;100.00
43757;BME280;73222;41.866;12.462;2023-12-07T00:39:20;101189.84;;;4.08;100.00
43757;BME280;73222;41.866;12.462;2023-12-07T00:41:46;101196.66;;;4.07;100.00
43757;BME280;73222;41.866;12.462;2023-12-07T00:44:15;101198.34;;;4.07;100.00
43757;BME280;73222;41.866;12.462;2023-12-07T00:46:41;101201.81;;;4.09;100.00
43757;BME280;73222;41.866;12.462;2023-12-07T00:49:06;101197.41;;;4.05;100.00
43757;BME280;73222;41.866;12.462;2023-12-07T00:51:32;101204.28;;;4.06;100.00
43757;BME280;73222;41.866;12.462;2023-12-07T00:53:57;101204.97;;;4.02;100.00
43757;BME280;73222;41.866;12.462;2023-12-07T00:56:23;101203.19;;;3.99;100.00
43757;BME280;73222;41.866;12.462;2023-12-07T00:58:49;101211.59;;;3.96;100.00
43757;BME280;73222;41.866;12.462;2023-12-07T01:01:14;101212.97;;;3.88;100.00
43757;BME280;73222;41.866;12.462;2023-12-07T01:03:40;101222.25;;;3.86;100.00
43757;BME280;73222;41.866;12.462;2023-12-07T01:06:06;101218.53;;;3.99;100.00
43757;BME280;73222;41.866;12.462;2023-12-07T01:08:31;101220.09;;;3.95;100.00
43757;BME280;73222;41.866;12.462;2023-12-07T01:10:57;101221.53;;;3.89;100.00
43757;BME280;73222;41.866;12.462;2023-12-07T01:13:22;101221.47;;;3.87;100.00
43757;BME280;73222;41.866;12.462;2023-12-07T01:15:49;101220.78;;;3.91;100.00
43757;BME280;73222;41.866;12.462;2023-12-07T01:18:14;101224.03;;;3.87;100.00
43757;BME280;73222;41.866;12.462;2023-12-07T01:20:40;101222.06;;;3.81;100.00
43757;BME280;73222;41.866;12.462;2023-12-07T01:23:05;101216.84;;;3.78;100.00
43757;BME280;73222;41.866;12.462;2023-12-07T01:25:31;101217.84;;;3.82;100.00
43757;BME280;73222;41.866;12.462;2023-12-07T01:27:56;101215.94;;;3.78;100.00
43757;BME280;73222;41.866;12.462;2023-12-07T01:30:22;101218.50;;;3.78;100.00
43757;BME280;73222;41.866;12.462;2023-12-07T01:32:47;101224.41;;;3.75;100.00
43757;BME280;73222;41.866;12.462;2023-12-07T01:35:12;101222.84;;;3.79;100.00
43757;BME280;73222;41.866;12.462;2023-12-07T01:37:38;101219.22;;;3.74;100.00
43757;BME280;73222;41.866;12.462;2023-12-07T01:40:04;101217.31;;;3.69;100.00
43757;BME280;73222;41.866;12.462;2023-12-07T01:42:34;101220.84;;;3.71;100.00
43757;BME280;73222;41.866;12.462;2023-12-07T01:45:00;101221.41;;;3.64;100.00
43757;BME280;73222;41.866;12.462;2023-12-07T01:47:26;101217.75;;;3.59;100.00
43757;BME280;73222;41.866;12.462;2023-12-07T01:49:51;101225.16;;;3.53;100.00
43757;BME280;73222;41.866;12.462;2023-12-07T01:52:17;101229.44;;;3.52;100.00
43757;BME280;73222;41.866;12.462;2023-12-07T01:54:44;101232.03;;;3.54;100.00
43757;BME280;73222;41.866;12.462;2023-12-07T01:57:09;101237.94;;;3.51;100.00
43757;BME280;73222;41.866;12.462;2023-12-07T01:59:35;101237.66;;;3.45;100.00
43757;BME280;73222;41.866;12.462;2023-12-07T02:02:00;101241.06;;;3.46;100.00
43757;BME280;73222;41.866;12.462;2023-12-07T02:04:26;101236.66;;;3.41;100.00
43757;BME280;73222;41.866;12.462;2023-12-07T02:06:54;101238.19;;;3.38;100.00
43757;BME280;73222;41.866;12.462;2023-12-07T02:09:22;101233.28;;;3.42;100.00
43757;BME280;73222;41.866;12.462;2023-12-07T02:11:47;101235.75;;;3.41;100.00
43757;BME280;73222;41.866;12.462;2023-12-07T02:14:12;101235.38;;;3.32;100.00
43757;BME280;73222;41.866;12.462;2023-12-07T02:16:52;101234.50;;;3.31;100.00
43757;BME280;73222;41.866;12.462;2023-12-07T02:22:25;101232.00;;;3.33;100.00
43757;BME280;73222;41.866;12.462;2023-12-07T02:25:10;101230.16;;;3.30;100.00
43757;BME280;73222;41.866;12.462;2023-12-07T02:27:40;101231.94;;;3.31;100.00
43757;BME280;73222;41.866;12.462;2023-12-07T02:30:07;101227.47;;;3.27;100.00
43757;BME280;73222;41.866;12.462;2023-12-07T02:32:34;101232.69;;;3.28;100.00
43757;BME280;73222;41.866;12.462;2023-12-07T02:35:00;101243.22;;;3.36;100.00
43757;BME280;73222;41.866;12.462;2023-12-07T02:37:28;101240.41;;;3.30;100.00
43757;BME280;73222;41.866;12.462;2023-12-07T02:39:55;101243.13;;;3.33;100.00
43757;BME280;73222;41.866;12.462;2023-12-07T02:42:22;101247.16;;;3.28;100.00
43757;BME280;73222;41.866;12.462;2023-12-07T02:44:49;101244.59;;;3.28;100.00
43757;BME280;73222;41.866;12.462;2023-12-07T02:47:15;101248.22;;;3.33;100.00
43757;BME280;73222;41.866;12.462;2023-12-07T02:49:40;101253.34;;;3.33;100.00
43757;BME280;73222;41.866;12.462;2023-12-07T02:52:05;101246.34;;;3.29;100.00
43757;BME280;73222;41.866;12.462;2023-12-07T02:54:31;101251.34;;;3.26;100.00
43757;BME280;73222;41.866;12.462;2023-12-07T02:56:56;101259.81;;;3.25;100.00
43757;BME280;73222;41.866;12.462;2023-12-07T02:59:22;101265.06;;;3.28;100.00
43757;BME280;73222;41.866;12.462;2023-12-07T03:01:47;101258.88;;;3.23;100.00
43757;BME280;73222;41.866;12.462;2023-12-07T03:04:12;101265.22;;;3.31;100.00
43757;BME280;73222;41.866;12.462;2023-12-07T03:06:38;101263.66;;;3.35;100.00
43757;BME280;73222;41.866;12.462;2023-12-07T03:09:03;101265.34;;;3.34;100.00
43757;BME280;73222;41.866;12.462;2023-12-07T03:11:28;101267.78;;;3.31;100.00
43757;BME280;73222;41.866;12.462;2023-12-07T03:13:54;101269.66;;;3.35;100.00
43757;BME280;73222;41.866;12.462;2023-12-07T03:16:19;101265.94;;;3.28;100.00
43757;BME280;73222;41.866;12.462;2023-12-07T03:18:45;101274.56;;;3.30;100.00
43757;BME280;73222;41.866;12.462;2023-12-07T03:21:11;101279.34;;;3.23;100.00
43757;BME280;73222;41.866;12.462;2023-12-07T03:23:37;101274.38;;;3.26;100.00
43757;BME280;73222;41.866;12.462;2023-12-07T03:26:03;101285.53;;;3.28;100.00
43757;BME280;73222;41.866;12.462;2023-12-07T03:28:28;101286.34;;;3.27;100.00
43757;BME280;73222;41.866;12.462;2023-12-07T03:30:53;101289.44;;;3.20;100.00
43757;BME280;73222;41.866;12.462;2023-12-07T03:33:19;101290.16;;;3.17;100.00
43757;BME280;73222;41.866;12.462;2023-12-07T03:35:44;101291.66;;;3.12;100.00
43757;BME280;73222;41.866;12.462;2023-12-07T03:38:10;101296.25;;;3.19;100.00
43757;BME280;73222;41.866;12.462;2023-12-07T03:40:35;101291.72;;;3.13;100.00
43757;BME280;73222;41.866;12.462;2023-12-07T03:43:00;101301.00;;;3.11;100.00
43757;BME280;73222;41.866;12.462;2023-12-07T03:45:28;101300.19;;;3.12;100.00
43757;BME280;73222;41.866;12.462;2023-12-07T03:47:53;101301.94;;;3.13;100.00
43757;BME280;73222;41.866;12.462;2023-12-07T03:50:19;101311.94;;;3.07;100.00
43757;BME280;73222;41.866;12.462;2023-12-07T03:52:44;101305.41;;;2.96;100.00
43757;BME280;73222;41.866;12.462;2023-12-07T03:55:09;101312.28;;;2.97;100.00
43757;BME280;73222;41.866;12.462;2023-12-07T03:57:36;101310.47;;;2.94;100.00
43757;BME280;73222;41.866;12.462;2023-12-07T04:00:01;101319.91;;;2.95;100.00
43757;BME280;73222;41.866;12.462;2023-12-07T04:02:30;101322.47;;;2.95;100.00
43757;BME280;73222;41.866;12.462;2023-12-07T04:04:58;101325.75;;;2.93;100.00
43757;BME280;73222;41.866;12.462;2023-12-07T04:07:27;101336.91;;;2.95;100.00
43757;BME280;73222;41.866;12.462;2023-12-07T04:09:53;101336.91;;;2.95;100.00
43757;BME280;73222;41.866;12.462;2023-12-07T04:12:19;101334.38;;;2.95;100.00
43757;BME280;73222;41.866;12.462;2023-12-07T04:14:45;101341.75;;;2.88;100.00
43757;BME280;73222;41.866;12.462;2023-12-07T04:17:10;101343.44;;;2.88;100.00
43757;BME280;73222;41.866;12.462;2023-12-07T04:19:35;101353.47;;;2.83;100.00
43757;BME280;73222;41.866;12.462;2023-12-07T04:22:01;101348.19;;;2.80;100.00
43757;BME280;73222;41.866;12.462;2023-12-07T04:24:26;101351.84;;;2.85;100.00
43757;BME280;73222;41.866;12.462;2023-12-07T04:26:52;101353.25;;;2.79;100.00
43757;BME280;73222;41.866;12.462;2023-12-07T04:29:17;101356.06;;;2.85;100.00
43757;BME280;73222;41.866;12.462;2023-12-07T04:31:42;101351.84;;;2.85;100.00
43757;BME280;73222;41.866;12.462;2023-12-07T04:34:08;101353.16;;;2.77;100.00
43757;BME280;73222;41.866;12.462;2023-12-07T04:36:34;101351.84;;;2.85;100.00
43757;BME280;73222;41.866;12.462;2023-12-07T04:38:59;101347.44;;;2.83;100.00
43757;BME280;73222;41.866;12.462;2023-12-07T04:41:24;101353.47;;;2.83;100.00
43757;BME280;73222;41.866;12.462;2023-12-07T04:43:50;101349.78;;;2.78;100.00
43757;BME280;73222;41.866;12.462;2023-12-07T04:46:15;101353.28;;;2.80;100.00
43757;BME280;73222;41.866;12.462;2023-12-07T04:48:40;101354.78;;;2.75;100.00
43757;BME280;73222;41.866;12.462;2023-12-07T04:51:06;101353.66;;;2.70;100.00
43757;BME280;73222;41.866;12.462;2023-12-07T04:53:31;101353.81;;;2.73;100.00
43757;BME280;73222;41.866;12.462;2023-12-07T04:55:57;101350.22;;;2.69;100.00
43757;BME280;73222;41.866;12.462;2023-12-07T04:58:22;101357.84;;;2.68;100.00
43757;BME280;73222;41.866;12.462;2023-12-07T05:00:47;101355.91;;;2.64;100.00
43757;BME280;73222;41.866;12.462;2023-12-07T05:03:13;101360.00;;;2.60;100.00
43757;BME280;73222;41.866;12.462;2023-12-07T05:05:39;101356.88;;;2.66;100.00
43757;BME280;73222;41.866;12.462;2023-12-07T05:08:04;101357.84;;;2.68;100.00
43757;BME280;73222;41.866;12.462;2023-12-07T05:10:29;101357.66;;;2.65;100.00
43757;BME280;73222;41.866;12.462;2023-12-07T05:12:55;101355.19;;;2.66;100.00
43757;BME280;73222;41.866;12.462;2023-12-07T05:15:22;101362.50;;;2.58;100.00
43757;BME280;73222;41.866;12.462;2023-12-07T05:17:47;101353.88;;;2.56;100.00
43757;BME280;73222;41.866;12.462;2023-12-07T05:20:12;101360.91;;;2.60;100.00
43757;BME280;73222;41.866;12.462;2023-12-07T05:22:38;101353.88;;;2.56;100.00
43757;BME280;73222;41.866;12.462;2023-12-07T05:25:04;101361.47;;;2.55;100.00
43757;BME280;73222;41.866;12.462;2023-12-07T05:27:30;101363.66;;;2.47;100.00
43757;BME280;73222;41.866;12.462;2023-12-07T05:29:55;101369.56;;;2.46;100.00
43757;BME280;73222;41.866;12.462;2023-12-07T05:32:21;101374.03;;;2.50;100.00
43757;BME280;73222;41.866;12.462;2023-12-07T05:34:47;101377.22;;;2.46;100.00
43757;BME280;73222;41.866;12.462;2023-12-07T05:37:12;101377.22;;;2.46;100.00
43757;BME280;73222;41.866;12.462;2023-12-07T05:39:38;101377.94;;;2.43;100.00
43757;BME280;73222;41.866;12.462;2023-12-07T05:42:03;101384.91;;;2.46;100.00
43757;BME280;73222;41.866;12.462;2023-12-07T05:44:29;101386.28;;;2.57;100.00
43757;BME280;73222;41.866;12.462;2023-12-07T05:46:55;101387.75;;;2.52;100.00
43757;BME280;73222;41.866;12.462;2023-12-07T05:49:22;101388.91;;;2.41;100.00
43757;BME280;73222;41.866;12.462;2023-12-07T05:51:48;101395.13;;;2.46;100.00
43757;BME280;73222;41.866;12.462;2023-12-07T05:54:14;101394.91;;;2.41;100.00
43757;BME280;73222;41.866;12.462;2023-12-07T05:56:40;101401.38;;;2.35;100.00
43757;BME280;73222;41.866;12.462;2023-12-07T05:59:06;101409.09;;;2.36;100.00
43757;BME280;73222;41.866;12.462;2023-12-07T06:01:31;101407.22;;;2.32;100.00
43757;BME280;73222;41.866;12.462;2023-12-07T06:03:58;101406.78;;;2.41;100.00
43757;BME280;73222;41.866;12.462;2023-12-07T06:06:23;101407.53;;;2.38;100.00
43757;BME280;73222;41.866;12.462;2023-12-07T06:08:49;101418.25;;;2.49;100.00
43757;BME280;73222;41.866;12.462;2023-12-07T06:11:14;101414.75;;;2.47;100.00
43757;BME280;73222;41.866;12.462;2023-12-07T06:13:40;101419.38;;;2.54;100.00
43757;BME280;73222;41.866;12.462;2023-12-07T06:16:05;101428.09;;;2.58;100.00
43757;BME280;73222;41.866;12.462;2023-12-07T06:18:31;101415.22;;;2.56;100.00
43757;BME280;73222;41.866;12.462;2023-12-07T06:20:56;101430.06;;;2.64;100.00
43757;BME280;73222;41.866;12.462;2023-12-07T06:23:22;101430.88;;;2.63;100.00
43757;BME280;73222;41.866;12.462;2023-12-07T06:25:47;101436.88;;;2.63;100.00
43757;BME280;73222;41.866;12.462;2023-12-07T06:28:12;101444.19;;;2.73;100.00
43757;BME280;73222;41.866;12.462;2023-12-07T06:30:38;101438.03;;;2.70;100.00
43757;BME280;73222;41.866;12.462;2023-12-07T06:33:04;101442.13;;;2.66;100.00
43757;BME280;73222;41.866;12.462;2023-12-07T06:35:29;101437.16;;;2.69;100.00
43757;BME280;73222;41.866;12.462;2023-12-07T06:37:55;101441.72;;;2.75;100.00
43757;BME280;73222;41.866;12.462;2023-12-07T06:40:21;101448.88;;;2.82;100.00
43757;BME280;73222;41.866;12.462;2023-12-07T06:42:46;101448.13;;;2.85;100.00
43757;BME280;73222;41.866;12.462;2023-12-07T06:45:13;101442.28;;;2.87;100.00
43757;BME280;73222;41.866;12.462;2023-12-07T06:47:42;101440.94;;;2.94;100.00
43757;BME280;73222;41.866;12.462;2023-12-07T06:50:08;101446.41;;;3.02;100.00
43757;BME280;73222;41.866;12.462;2023-12-07T06:52:37;101447.66;;;3.10;100.00
43757;BME280;73222;41.866;12.462;2023-12-07T06:55:03;101441.13;;;3.17;100.00
43757;BME280;73222;41.866;12.462;2023-12-07T06:58:32;101438.78;;;3.22;100.00
43757;BME280;73222;41.866;12.462;2023-12-07T07:00:57;101445.81;;;3.26;100.00
43757;BME280;73222;41.866;12.462;2023-12-07T07:03:22;101439.25;;;3.31;100.00
43757;BME280;73222;41.866;12.462;2023-12-07T07:05:48;101437.13;;;3.40;100.00
43757;BME280;73222;41.866;12.462;2023-12-07T07:08:13;101449.53;;;3.51;100.00
43757;BME280;73222;41.866;12.462;2023-12-07T07:10:38;101449.72;;;3.55;100.00
43757;BME280;73222;41.866;12.462;2023-12-07T07:13:04;101447.66;;;3.66;100.00
43757;BME280;73222;41.866;12.462;2023-12-07T07:15:32;101449.91;;;3.78;100.00
43757;BME280;73222;41.866;12.462;2023-12-07T07:17:58;101439.25;;;3.89;100.00
43757;BME280;73222;41.866;12.462;2023-12-07T07:20:24;101441.66;;;4.04;100.00
43757;BME280;73222;41.866;12.462;2023-12-07T07:22:49;101442.63;;;4.27;100.00
43757;BME280;73222;41.866;12.462;2023-12-07T07:25:15;101454.06;;;5.19;100.00
43757;BME280;73222;41.866;12.462;2023-12-07T07:27:41;101438.94;;;6.44;100.00
43757;BME280;73222;41.866;12.462;2023-12-07T07:30:07;101407.53;;;7.66;100.00
43757;BME280;73222;41.866;12.462;2023-12-07T07:32:33;101362.47;;;8.86;100.00
43757;BME280;73222;41.866;12.462;2023-12-07T07:34:59;101327.28;;;10.28;100.00
43757;BME280;73222;41.866;12.462;2023-12-07T07:37:24;101315.53;;;11.09;100.00
43757;BME280;73222;41.866;12.462;2023-12-07T07:39:50;101306.69;;;11.64;100.00
43757;BME280;73222;41.866;12.462;2023-12-07T07:42:18;101301.75;;;11.91;100.00
43757;BME280;73222;41.866;12.462;2023-12-07T07:44:43;101302.41;;;12.73;100.00
43757;BME280;73222;41.866;12.462;2023-12-07T07:47:09;101299.78;;;12.72;100.00
43757;BME280;73222;41.866;12.462;2023-12-07T07:49:34;101302.81;;;13.70;100.00
43757;BME280;73222;41.866;12.462;2023-12-07T07:51:59;101300.97;;;13.38;100.00
43757;BME280;73222;41.866;12.462;2023-12-07T07:54:25;101299.34;;;13.90;100.00
43757;BME280;73222;41.866;12.462;2023-12-07T07:56:51;101294.97;;;13.67;100.00
43757;BME280;73222;41.866;12.462;2023-12-07T07:59:16;101304.56;;;14.14;100.00
43757;BME280;73222;41.866;12.462;2023-12-07T08:01:41;101304.59;;;14.33;100.00
43757;BME280;73222;41.866;12.462;2023-12-07T08:04:07;101303.69;;;14.47;100.00
43757;BME280;73222;41.866;12.462;2023-12-07T08:06:32;101301.09;;;13.81;100.00
43757;BME280;73222;41.866;12.462;2023-12-07T08:08:59;101309.78;;;13.86;100.00
43757;BME280;73222;41.866;12.462;2023-12-07T08:11:24;101311.44;;;14.93;100.00
43757;BME280;73222;41.866;12.462;2023-12-07T08:13:50;101314.81;;;15.23;100.00
43757;BME280;73222;41.866;12.462;2023-12-07T08:16:15;101315.75;;;15.07;100.00
43757;BME280;73222;41.866;12.462;2023-12-07T08:18:41;101317.25;;;15.58;100.00
43757;BME280;73222;41.866;12.462;2023-12-07T08:21:06;101322.44;;;15.61;100.00
43757;BME280;73222;41.866;12.462;2023-12-07T08:23:34;101323.94;;;16.02;100.00
43757;BME280;73222;41.866;12.462;2023-12-07T08:26:00;101332.31;;;16.43;100.00
43757;BME280;73222;41.866;12.462;2023-12-07T08:28:26;101338.28;;;17.39;99.97
43757;BME280;73222;41.866;12.462;2023-12-07T08:30:51;101329.59;;;16.53;96.83
43757;BME280;73222;41.866;12.462;2023-12-07T08:33:17;101338.41;;;16.42;96.58
43757;BME280;73222;41.866;12.462;2023-12-07T08:35:42;101343.63;;;16.44;92.37
43757;BME280;73222;41.866;12.462;2023-12-07T08:38:08;101347.78;;;16.67;94.51
43757;BME280;73222;41.866;12.462;2023-12-07T08:40:33;101348.50;;;16.81;92.06
43757;BME280;73222;41.866;12.462;2023-12-07T08:42:58;101353.91;;;18.07;87.80
43757;BME280;73222;41.866;12.462;2023-12-07T08:45:24;101351.22;;;18.11;76.96
43757;BME280;73222;41.866;12.462;2023-12-07T08:47:49;101350.00;;;18.33;78.73
43757;BME280;73222;41.866;12.462;2023-12-07T08:50:14;101353.63;;;18.25;76.91
43757;BME280;73222;41.866;12.462;2023-12-07T08:52:40;101348.69;;;18.07;71.03
43757;BME280;73222;41.866;12.462;2023-12-07T08:55:05;101361.41;;;18.80;68.43
43757;BME280;73222;41.866;12.462;2023-12-07T08:57:31;101367.16;;;19.00;64.94
43757;BME280;73222;41.866;12.462;2023-12-07T08:59:56;101370.88;;;18.39;76.38
43757;BME280;73222;41.866;12.462;2023-12-07T09:02:23;101369.63;;;18.62;73.07
43757;BME280;73222;41.866;12.462;2023-12-07T09:04:48;101370.34;;;18.70;70.92
43757;BME280;73222;41.866;12.462;2023-12-07T09:07:16;101363.31;;;18.72;69.15
43757;BME280;73222;41.866;12.462;2023-12-07T09:09:42;101378.06;;;19.68;61.89
43757;BME280;73222;41.866;12.462;2023-12-07T09:12:12;101369.97;;;20.15;57.18
43757;BME280;73222;41.866;12.462;2023-12-07T09:14:38;101368.56;;;20.01;57.05
43757;BME280;73222;41.866;12.462;2023-12-07T09:17:03;101365.97;;;19.59;62.51
43757;BME280;73222;41.866;12.462;2023-12-07T09:19:28;101373.47;;;20.17;55.50
43757;BME280;73222;41.866;12.462;2023-12-07T09:21:54;101365.81;;;20.42;53.20
43757;BME280;73222;41.866;12.462;2023-12-07T09:24:19;101368.28;;;20.49;55.03
43757;BME280;73222;41.866;12.462;2023-12-07T09:26:45;101364.28;;;21.32;50.18
43757;BME280;73222;41.866;12.462;2023-12-07T09:29:10;101366.19;;;20.62;50.08
43757;BME280;73222;41.866;12.462;2023-12-07T09:31:35;101367.66;;;20.02;53.38
43757;BME280;73222;41.866;12.462;2023-12-07T09:34:01;101360.25;;;21.50;51.36
43757;BME280;73222;41.866;12.462;2023-12-07T09:36:26;101354.28;;;21.73;45.40
43757;BME280;73222;41.866;12.462;2023-12-07T09:38:53;101356.69;;;21.81;47.33
43757;BME280;73222;41.866;12.462;2023-12-07T09:41:19;101363.03;;;21.75;45.88
43757;BME280;73222;41.866;12.462;2023-12-07T09:43:45;101368.03;;;23.15;41.54
43757;BME280;73222;41.866;12.462;2023-12-07T09:46:10;101361.81;;;22.92;39.35
43757;BME280;73222;41.866;12.462;2023-12-07T09:48:37;101356.84;;;21.76;43.38
43757;BME280;73222;41.866;12.462;2023-12-07T09:51:07;101364.88;;;22.27;42.60
43757;BME280;73222;41.866;12.462;2023-12-07T09:53:33;101374.38;;;23.57;39.55
43757;BME280;73222;41.866;12.462;2023-12-07T09:56:00;101372.78;;;22.54;40.57
43757;BME280;73222;41.866;12.462;2023-12-07T09:58:25;101369.53;;;21.92;43.01
43757;BME280;73222;41.866;12.462;2023-12-07T10:00:51;101363.16;;;22.26;40.96
43757;BME280;73222;41.866;12.462;2023-12-07T10:03:23;101366.75;;;22.76;39.98
43757;BME280;73222;41.866;12.462;2023-12-07T10:05:56;101375.03;;;23.86;38.46
43757;BME280;73222;41.866;12.462;2023-12-07T10:08:40;101379.84;;;23.28;38.94
43757;BME280;73222;41.866;12.462;2023-12-07T10:11:09;101377.88;;;23.35;37.54
43757;BME280;73222;41.866;12.462;2023-12-07T10:13:37;101382.63;;;23.71;38.34
43757;BME280;73222;41.866;12.462;2023-12-07T10:16:12;101380.81;;;24.39;35.59
43757;BME280;73222;41.866;12.462;2023-12-07T10:18:40;101379.69;;;24.24;36.84
43757;BME280;73222;41.866;12.462;2023-12-07T10:21:07;101382.75;;;24.56;35.76
43757;BME280;73222;41.866;12.462;2023-12-07T10:23:33;101383.19;;;24.02;36.29
43757;BME280;73222;41.866;12.462;2023-12-07T10:25:59;101388.38;;;24.48;35.60
43757;BME280;73222;41.866;12.462;2023-12-07T10:28:27;101389.03;;;24.33;36.18
43757;BME280;73222;41.866;12.462;2023-12-07T10:30:52;101386.91;;;23.76;36.67
43757;BME280;73222;41.866;12.462;2023-12-07T10:33:19;101379.91;;;23.51;37.08
43757;BME280;73222;41.866;12.462;2023-12-07T10:35:44;101374.59;;;25.02;35.46
43757;BME280;73222;41.866;12.462;2023-12-07T10:38:10;101370.09;;;25.43;33.31
43757;BME280;73222;41.866;12.462;2023-12-07T10:40:36;101366.44;;;25.07;34.63
43757;BME280;73222;41.866;12.462;2023-12-07T10:43:05;101373.69;;;25.42;34.54
43757;BME280;73222;41.866;12.462;2023-12-07T10:45:31;101364.78;;;24.44;35.27
43757;BME280;73222;41.866;12.462;2023-12-07T10:48:07;101373.81;;;25.00;34.03
43757;BME280;73222;41.866;12.462;2023-12-07T10:50:42;101363.38;;;25.55;33.80
43757;BME280;73222;41.866;12.462;2023-12-07T10:53:19;101360.59;;;25.19;34.28
43757;BME280;73222;41.866;12.462;2023-12-07T10:55:51;101354.63;;;26.26;32.66
43757;BME280;73222;41.866;12.462;2023-12-07T10:58:19;101351.25;;;26.05;32.65
43757;BME280;73222;41.866;12.462;2023-12-07T11:00:46;101362.25;;;26.15;32.02
43757;BME280;73222;41.866;12.462;2023-12-07T11:03:16;101359.19;;;26.05;31.96
43757;BME280;73222;41.866;12.462;2023-12-07T11:05:46;101351.19;;;25.70;32.48
43757;BME280;73222;41.866;12.462;2023-12-07T11:14:03;101341.47;;;25.13;32.57
43757;BME280;73222;41.866;12.462;2023-12-07T11:18:57;101350.94;;;26.11;32.36
43757;BME280;73222;41.866;12.462;2023-12-07T11:21:23;101338.91;;;26.04;31.61
43757;BME280;73222;41.866;12.462;2023-12-07T11:23:48;101343.69;;;25.60;32.89
43757;BME280;73222;41.866;12.462;2023-12-07T11:26:14;101342.97;;;25.93;30.79
43757;BME280;73222;41.866;12.462;2023-12-07T11:28:39;101337.41;;;24.85;32.93
43757;BME280;73222;41.866;12.462;2023-12-07T11:31:08;101339.66;;;24.73;33.71
43757;BME280;73222;41.866;12.462;2023-12-07T11:33:37;101329.41;;;25.44;33.63
43757;BME280;73222;41.866;12.462;2023-12-07T11:38:28;101318.97;;;24.41;35.08
43757;BME280;73222;41.866;12.462;2023-12-07T11:40:54;101320.13;;;23.24;35.77
43757;BME280;73222;41.866;12.462;2023-12-07T11:45:58;101306.25;;;22.95;38.13
43757;BME280;73222;41.866;12.462;2023-12-07T11:48:24;101299.06;;;22.99;38.64
43757;BME280;73222;41.866;12.462;2023-12-07T11:53:24;101298.16;;;23.46;38.02
43757;BME280;73222;41.866;12.462;2023-12-07T11:55:50;101297.59;;;22.66;39.30
43757;BME280;73222;41.866;12.462;2023-12-07T11:58:16;101300.00;;;23.66;38.39
43757;BME280;73222;41.866;12.462;2023-12-07T12:00:41;101287.25;;;23.55;39.01
43757;BME280;73222;41.866;12.462;2023-12-07T12:03:07;101280.94;;;22.89;38.22
43757;BME280;73222;41.866;12.462;2023-12-07T12:05:32;101286.38;;;23.55;37.28
43757;BME280;73222;41.866;12.462;2023-12-07T12:07:57;101281.59;;;23.18;38.37
43757;BME280;73222;41.866;12.462;2023-12-07T12:10:23;101280.16;;;22.11;39.60
43757;BME280;73222;41.866;12.462;2023-12-07T12:12:51;101276.00;;;22.56;40.51
43757;BME280;73222;41.866;12.462;2023-12-07T12:15:16;101274.03;;;23.09;40.28
43757;BME280;73222;41.866;12.462;2023-12-07T12:17:42;101272.00;;;23.62;37.48
43757;BME280;73222;41.866;12.462;2023-12-07T12:20:08;101265.84;;;23.62;38.88
43757;BME280;73222;41.866;12.462;2023-12-07T12:22:36;101259.09;;;23.77;38.31
43757;BME280;73222;41.866;12.462;2023-12-07T12:25:01;101264.91;;;23.18;38.85
43757;BME280;73222;41.866;12.462;2023-12-07T12:27:27;101260.25;;;23.01;38.73
43757;BME280;73222;41.866;12.462;2023-12-07T12:29:53;101253.22;;;24.53;36.76
43757;BME280;73222;41.866;12.462;2023-12-07T12:32:19;101252.91;;;24.80;35.33
43757;BME280;73222;41.866;12.462;2023-12-07T12:34:51;101257.41;;;24.17;36.71
43757;BME280;73222;41.866;12.462;2023-12-07T12:37:16;101254.94;;;25.31;34.17
43757;BME280;73222;41.866;12.462;2023-12-07T12:39:42;101249.53;;;25.15;34.74
43757;BME280;73222;41.866;12.462;2023-12-07T12:42:07;101256.69;;;25.13;35.11
43757;BME280;73222;41.866;12.462;2023-12-07T12:44:35;101252.13;;;25.16;35.24
43757;BME280;73222;41.866;12.462;2023-12-07T12:47:01;101251.00;;;25.76;34.24
43757;BME280;73222;41.866;12.462;2023-12-07T12:49:37;101248.09;;;25.07;34.35
43757;BME280;73222;41.866;12.462;2023-12-07T12:52:02;101234.91;;;24.48;34.58
43757;BME280;73222;41.866;12.462;2023-12-07T12:54:31;101239.84;;;24.16;36.05